AAL2860 KDFW-KSLC
Flight info
| Callsign | AAL2860 |
|---|---|
| Flight time | N/A |
| Altitude | 34000 |
| Route | HUDAD2 HUDAD PNH ALS JNC J12 HELPR PITTT2 |
| Aircraft | A321/M-SDE3FGHIRWY/LB1 |
Departure
| Time | 2026-05-06 13:07 |
|---|---|
| Airport | Dallas Fort Worth International Airport (KDFW) |
Arrival
| Time | N/A |
|---|---|
| Airport | Salt Lake City International Airport (KSLC) |
| Time | Latitude | Longitude | Altitude | Speed | Heading |
|---|---|---|---|---|---|
| 2026-05-06 12:44 | 32.89333 | -97.04257 | 598 ft | 0 kts | 85° |
| 2026-05-06 12:59 | 32.89332 | -97.04272 | 598 ft | 4 kts | 86° |
| 2026-05-06 12:59 | 32.89331 | -97.04304 | 598 ft | 4 kts | 95° |
| 2026-05-06 12:59 | 32.89338 | -97.04333 | 598 ft | 3 kts | 126° |
| 2026-05-06 13:00 | 32.89348 | -97.04352 | 598 ft | 4 kts | 94° |
| 2026-05-06 13:00 | 32.89340 | -97.04368 | 598 ft | 4 kts | 9° |
| 2026-05-06 13:00 | 32.89314 | -97.04370 | 598 ft | 4 kts | 1° |
| 2026-05-06 13:00 | 32.89308 | -97.04370 | 598 ft | 0 kts | 1° |
| 2026-05-06 13:02 | 32.89312 | -97.04370 | 598 ft | 3 kts | 1° |
| 2026-05-06 13:03 | 32.89376 | -97.04368 | 591 ft | 15 kts | 1° |
| 2026-05-06 13:03 | 32.89427 | -97.04426 | 598 ft | 13 kts | 272° |
| 2026-05-06 13:03 | 32.89428 | -97.04568 | 598 ft | 22 kts | 271° |
| 2026-05-06 13:03 | 32.89421 | -97.04758 | 595 ft | 20 kts | 249° |
| 2026-05-06 13:04 | 32.89389 | -97.04880 | 597 ft | 10 kts | 227° |
| 2026-05-06 13:04 | 32.89308 | -97.04892 | 595 ft | 15 kts | 179° |
| 2026-05-06 13:04 | 32.89176 | -97.04891 | 591 ft | 22 kts | 180° |
| 2026-05-06 13:04 | 32.89003 | -97.04891 | 591 ft | 27 kts | 180° |
| 2026-05-06 13:05 | 32.88809 | -97.04892 | 587 ft | 29 kts | 181° |
| 2026-05-06 13:05 | 32.88608 | -97.04893 | 589 ft | 28 kts | 180° |
| 2026-05-06 13:05 | 32.88412 | -97.04894 | 589 ft | 29 kts | 180° |
| 2026-05-06 13:05 | 32.88210 | -97.04895 | 590 ft | 28 kts | 180° |
| 2026-05-06 13:06 | 32.88008 | -97.04896 | 587 ft | 30 kts | 180° |
| 2026-05-06 13:06 | 32.87907 | -97.04950 | 585 ft | 15 kts | 259° |
| 2026-05-06 13:06 | 32.87917 | -97.05073 | 587 ft | 14 kts | 300° |
| 2026-05-06 13:06 | 32.88032 | -97.05091 | 590 ft | 35 kts | 1° |
| 2026-05-06 13:07 | 32.88512 | -97.05088 | 589 ft | 102 kts | 0° |
| 2026-05-06 13:07 | 32.89409 | -97.05083 | 599 ft | 153 kts | 0° |
| 2026-05-06 13:07 | 32.90540 | -97.05076 | 1102 ft | 157 kts | 359° |
| 2026-05-06 13:07 | 32.91625 | -97.05094 | 1869 ft | 155 kts | 360° |
| 2026-05-06 13:08 | 32.92707 | -97.05122 | 2472 ft | 159 kts | 1° |
| 2026-05-06 13:08 | 32.93906 | -97.05148 | 2713 ft | 179 kts | 358° |
| 2026-05-06 13:08 | 32.95231 | -97.05174 | 2863 ft | 202 kts | 359° |
| 2026-05-06 13:08 | 32.96699 | -97.05200 | 3007 ft | 225 kts | 359° |
| 2026-05-06 13:09 | 32.98322 | -97.05224 | 3448 ft | 239 kts | 358° |
| 2026-05-06 13:09 | 33.00017 | -97.05248 | 4034 ft | 249 kts | 355° |
| 2026-05-06 13:09 | 33.01788 | -97.05274 | 4567 ft | 260 kts | 356° |
| 2026-05-06 13:09 | 33.03633 | -97.05301 | 5132 ft | 268 kts | 355° |
| 2026-05-06 13:10 | 33.05445 | -97.05698 | 5817 ft | 264 kts | 331° |
| 2026-05-06 13:10 | 33.06888 | -97.06970 | 6459 ft | 261 kts | 306° |
| 2026-05-06 13:10 | 33.07698 | -97.08887 | 6994 ft | 262 kts | 281° |
| 2026-05-06 13:10 | 33.08044 | -97.11022 | 7665 ft | 263 kts | 279° |
| 2026-05-06 13:11 | 33.08349 | -97.13169 | 8385 ft | 263 kts | 273° |
| 2026-05-06 13:11 | 33.08266 | -97.15321 | 9093 ft | 262 kts | 259° |
| 2026-05-06 13:11 | 33.07917 | -97.17460 | 9827 ft | 262 kts | 259° |
| 2026-05-06 13:11 | 33.07572 | -97.19610 | 10362 ft | 271 kts | 259° |
| 2026-05-06 13:12 | 33.07210 | -97.21905 | 10490 ft | 292 kts | 259° |
| 2026-05-06 13:12 | 33.06822 | -97.24368 | 10616 ft | 312 kts | 258° |
| 2026-05-06 13:12 | 33.06412 | -97.26956 | 10996 ft | 322 kts | 258° |
| 2026-05-06 13:12 | 33.05995 | -97.29593 | 11579 ft | 325 kts | 258° |
| 2026-05-06 13:13 | 33.05572 | -97.32249 | 12222 ft | 326 kts | 257° |
| 2026-05-06 13:13 | 33.05150 | -97.34903 | 12872 ft | 327 kts | 257° |
| 2026-05-06 13:13 | 33.04725 | -97.37580 | 13549 ft | 329 kts | 256° |
| 2026-05-06 13:13 | 33.04297 | -97.40258 | 14179 ft | 330 kts | 256° |
| 2026-05-06 13:14 | 33.03867 | -97.42948 | 14799 ft | 330 kts | 256° |
| 2026-05-06 13:14 | 33.03437 | -97.45638 | 15431 ft | 330 kts | 256° |
| 2026-05-06 13:14 | 33.03006 | -97.48325 | 16082 ft | 331 kts | 257° |
| 2026-05-06 13:14 | 33.02576 | -97.51013 | 16713 ft | 331 kts | 257° |
| 2026-05-06 13:15 | 33.02290 | -97.52797 | 17142 ft | 331 kts | 257° |
| 2026-05-06 13:15 | 33.01858 | -97.55489 | 17781 ft | 331 kts | 257° |
| 2026-05-06 13:15 | 33.01428 | -97.58171 | 18383 ft | 331 kts | 257° |
| 2026-05-06 13:15 | 33.00993 | -97.60884 | 18960 ft | 331 kts | 257° |
| 2026-05-06 13:16 | 33.00561 | -97.63576 | 19508 ft | 332 kts | 257° |
| 2026-05-06 13:16 | 33.00129 | -97.66273 | 20040 ft | 333 kts | 257° |